Time;durP1;ratioP1;P1;durP2;ratioP2;P2;SDS_P1;SDS_P2;PMS_P1;PMS_P2;Temp;Humidity;BMP_temperature;BMP_pressure;BME280_temperature;BME280_humidity;BME280_pressure;Samples;Min_cycle;Max_cycle;Signal;HPM_P1;HPM_P2
2023/07/05 00:01:11;;;;;;;4.60;3.35;;;24.70;78.40;;;;;;5093004;28;20043;-78
2023/07/05 00:03:37;;;;;;;6.38;3.90;;;24.60;78.40;;;;;;5074749;28;20035;-78
2023/07/05 00:06:06;;;;;;;6.57;3.25;;;24.60;78.40;;;;;;5092740;28;20024;-78
2023/07/05 00:08:33;;;;;;;6.05;3.45;;;24.60;78.60;;;;;;5092765;28;20027;-78
2023/07/05 00:11:03;;;;;;;6.57;3.17;;;24.60;78.80;;;;;;5092836;28;20020;-77
2023/07/05 00:13:29;;;;;;;4.30;3.38;;;24.50;78.60;;;;;;5092953;28;20067;-77
2023/07/05 00:15:55;;;;;;;5.13;3.30;;;24.50;78.40;;;;;;5090123;28;20059;-78
2023/07/05 00:18:21;;;;;;;6.82;3.38;;;24.50;78.20;;;;;;5052753;28;20090;-77
2023/07/05 00:20:46;;;;;;;6.93;3.58;;;24.50;78.10;;;;;;5052698;28;20098;-77
2023/07/05 00:23:12;;;;;;;6.13;3.55;;;24.50;77.90;;;;;;5052662;28;20025;-77
2023/07/05 00:25:38;;;;;;;4.90;3.25;;;24.50;78.10;;;;;;5051250;28;20032;-77
2023/07/05 00:28:03;;;;;;;8.15;3.38;;;24.50;78.00;;;;;;5052785;28;20025;-78
2023/07/05 00:30:30;;;;;;;4.97;3.40;;;24.50;77.90;;;;;;5052781;28;20048;-78
2023/07/05 00:32:55;;;;;;;5.25;3.10;;;24.50;78.00;;;;;;5052595;28;20486;-78
2023/07/05 00:35:21;;;;;;;4.68;3.25;;;24.50;78.10;;;;;;5051235;28;20028;-78
2023/07/05 00:37:47;;;;;;;8.40;3.75;;;24.50;78.10;;;;;;5052539;28;20029;-78
2023/07/05 00:40:13;;;;;;;4.55;3.47;;;24.40;78.00;;;;;;5052487;28;20013;-78
2023/07/05 00:42:39;;;;;;;5.57;3.15;;;24.40;77.90;;;;;;5052714;28;20370;-77
2023/07/05 00:45:11;;;;;;;4.80;3.35;;;24.40;78.00;;;;;;5052458;28;20014;-76
2023/07/05 00:47:39;;;;;;;5.60;3.42;;;24.40;78.00;;;;;;5052493;28;20104;-77
2023/07/05 00:50:25;;;;;;;4.88;3.28;;;24.40;78.00;;;;;;5052671;28;20029;-77
2023/07/05 00:52:54;;;;;;;6.35;3.65;;;24.40;78.10;;;;;;5051155;28;20033;-77
2023/07/05 00:55:21;;;;;;;5.55;3.35;;;24.30;78.00;;;;;;5051042;28;20032;-77
2023/07/05 00:57:47;;;;;;;8.00;3.42;;;24.30;78.10;;;;;;5051314;28;20029;-77
2023/07/05 01:00:18;;;;;;;5.75;3.10;;;24.30;78.20;;;;;;5049510;28;20055;-77
2023/07/05 01:02:49;;;;;;;6.85;3.75;;;24.20;78.50;;;;;;5048327;28;20364;-77
2023/07/05 01:05:16;;;;;;;5.78;3.55;;;24.20;79.20;;;;;;5051326;28;20021;-77
2023/07/05 01:07:43;;;;;;;5.30;3.25;;;24.20;78.60;;;;;;5052167;28;20108;-76
2023/07/05 01:10:20;;;;;;;5.15;3.25;;;24.20;78.70;;;;;;5051858;28;20028;-77
2023/07/05 01:12:55;;;;;;;5.55;3.55;;;24.20;78.70;;;;;;5051825;28;20068;-77
2023/07/05 01:15:33;;;;;;;5.20;3.47;;;24.20;78.70;;;;;;5052430;28;20053;-77
2023/07/05 01:18:19;;;;;;;6.50;3.22;;;24.10;78.70;;;;;;5055853;28;20025;-77
2023/07/05 01:21:07;;;;;;;6.53;3.60;;;24.10;78.70;;;;;;5055662;28;20029;-77
2023/07/05 01:24:04;;;;;;;5.00;3.28;;;24.10;78.90;;;;;;5055939;28;20487;-77
2023/07/05 01:26:47;;;;;;;4.68;3.70;;;24.10;79.00;;;;;;5055878;28;20114;-76
2023/07/05 01:29:22;;;;;;;3.83;3.33;;;24.00;79.10;;;;;;5055338;28;20029;-77
2023/07/05 01:31:54;;;;;;;5.15;3.50;;;24.00;79.30;;;;;;5055592;28;20028;-77
2023/07/05 01:35:00;;;;;;;8.27;3.83;;;24.00;79.50;;;;;;5054269;28;20110;-77
2023/07/05 01:37:34;;;;;;;5.82;3.60;;;24.00;79.60;;;;;;5055317;28;20090;-77
2023/07/05 01:40:09;;;;;;;11.02;3.40;;;24.00;79.60;;;;;;5054396;28;20065;-77
2023/07/05 01:42:35;;;;;;;3.78;3.15;;;24.00;79.70;;;;;;5055660;28;20048;-77
2023/07/05 01:45:01;;;;;;;5.10;3.65;;;24.00;79.90;;;;;;5055231;28;20064;-77
2023/07/05 01:48:03;;;;;;;9.57;3.83;;;24.00;80.00;;;;;;5055500;28;20025;-76
2023/07/05 01:50:41;;;;;;;4.30;3.72;;;24.00;79.80;;;;;;5045358;28;20037;-77
2023/07/05 01:53:12;;;;;;;8.13;3.88;;;24.00;79.70;;;;;;5055441;28;20486;-77
2023/07/05 01:55:56;;;;;;;7.43;3.80;;;24.00;79.50;;;;;;5055345;28;20382;-78
2023/07/05 01:58:28;;;;;;;6.15;3.65;;;24.00;79.50;;;;;;5055209;28;20061;-77
2023/07/05 02:00:56;;;;;;;8.00;3.63;;;24.00;79.50;;;;;;5055378;28;20025;-77
2023/07/05 02:03:23;;;;;;;5.45;3.45;;;24.00;79.40;;;;;;5055321;28;20017;-77
2023/07/05 02:05:50;;;;;;;8.05;3.75;;;23.90;79.60;;;;;;5055197;28;20029;-77
2023/07/05 02:08:17;;;;;;;6.35;3.75;;;23.90;80.00;;;;;;5055119;28;20029;-77
2023/07/05 02:10:43;;;;;;;5.03;3.60;;;23.80;80.40;;;;;;5054979;28;20029;-77
2023/07/05 02:13:11;;;;;;;7.10;3.28;;;23.80;80.50;;;;;;5054897;28;20029;-76
2023/07/05 02:15:39;;;;;;;6.85;3.47;;;23.70;80.80;;;;;;5054927;28;20041;-77
2023/07/05 02:18:06;;;;;;;7.45;3.75;;;23.70;81.10;;;;;;5054682;28;20142;-76
2023/07/05 02:20:32;;;;;;;7.45;3.17;;;23.60;80.70;;;;;;5054809;28;20481;-78
2023/07/05 02:22:57;;;;;;;5.13;2.67;;;23.70;79.60;;;;;;5054466;28;20142;-76
2023/07/05 02:25:23;;;;;;;3.22;2.13;;;23.70;78.00;;;;;;5054878;28;20100;-78
2023/07/05 02:27:49;;;;;;;4.28;2.55;;;23.70;76.80;;;;;;5054385;28;20025;-78
2023/07/05 02:30:15;;;;;;;11.00;2.30;;;23.70;76.70;;;;;;5055023;28;20021;-77
2023/07/05 02:32:41;;;;;;;9.18;2.00;;;23.70;76.00;;;;;;5054525;28;20033;-78
2023/07/05 02:35:08;;;;;;;4.20;1.73;;;23.70;75.20;;;;;;5054265;28;20021;-77
2023/07/05 02:37:34;;;;;;;2.67;1.58;;;23.80;74.20;;;;;;5054675;28;20025;-77
2023/07/05 02:40:00;;;;;;;1.98;1.35;;;23.70;74.20;;;;;;5054595;28;20025;-77
2023/07/05 02:42:27;;;;;;;2.35;1.38;;;23.70;73.80;;;;;;5052882;28;20021;-77
2023/07/05 02:44:52;;;;;;;3.80;1.20;;;23.70;73.70;;;;;;5054342;28;20029;-77
2023/07/05 02:47:19;;;;;;;4.10;1.20;;;23.70;71.90;;;;;;5054078;28;20090;-77
2023/07/05 02:49:46;;;;;;;1.42;1.00;;;23.70;71.50;;;;;;5054240;28;20021;-77
2023/07/05 02:52:12;;;;;;;2.25;1.10;;;23.70;71.30;;;;;;5054129;28;20078;-77
2023/07/05 02:54:38;;;;;;;3.60;1.48;;;23.70;71.10;;;;;;5054349;28;20040;-78
2023/07/05 02:57:04;;;;;;;2.92;1.10;;;23.70;70.90;;;;;;5054152;28;20025;-78
2023/07/05 02:59:30;;;;;;;2.83;1.35;;;23.70;70.90;;;;;;5054034;28;20585;-77
2023/07/05 03:01:56;;;;;;;6.28;1.60;;;23.70;70.90;;;;;;5054066;28;20032;-77
2023/07/05 03:04:21;;;;;;;2.10;1.30;;;23.70;71.00;;;;;;5053830;28;20028;-77
2023/07/05 03:06:47;;;;;;;1.92;1.50;;;23.70;71.30;;;;;;5053970;28;20036;-77
2023/07/05 03:09:13;;;;;;;4.60;1.63;;;23.70;71.50;;;;;;5053861;28;20017;-77
2023/07/05 03:11:39;;;;;;;2.55;1.52;;;23.60;71.50;;;;;;5052466;28;20033;-77
2023/07/05 03:14:04;;;;;;;2.65;1.70;;;23.60;71.80;;;;;;5053958;28;20031;-77
2023/07/05 03:16:30;;;;;;;6.47;1.45;;;23.60;72.20;;;;;;5053626;28;20052;-76
2023/07/05 03:18:56;;;;;;;3.40;1.50;;;23.60;72.60;;;;;;5053647;28;20035;-76
2023/07/05 03:21:22;;;;;;;2.97;1.60;;;23.60;72.90;;;;;;5053631;28;20017;-77
2023/07/05 03:23:47;;;;;;;3.38;2.00;;;23.60;73.20;;;;;;5053693;28;20107;-77
2023/07/05 03:26:14;;;;;;;3.42;2.15;;;23.60;73.60;;;;;;5053365;28;20016;-78
2023/07/05 03:28:40;;;;;;;6.53;2.28;;;23.60;74.00;;;;;;5053500;28;20025;-78
2023/07/05 03:31:10;;;;;;;4.45;2.20;;;23.60;74.50;;;;;;5053457;28;20021;-78
2023/07/05 03:33:36;;;;;;;4.40;2.45;;;23.60;75.00;;;;;;5053115;28;20438;-78
2023/07/05 03:36:05;;;;;;;7.43;2.40;;;23.60;75.60;;;;;;5053233;28;20074;-78
2023/07/05 03:38:32;;;;;;;6.50;2.72;;;23.60;75.90;;;;;;5053093;28;20033;-78
2023/07/05 03:40:59;;;;;;;5.15;2.70;;;23.50;76.10;;;;;;5052774;28;20078;-78
2023/07/05 03:43:26;;;;;;;4.05;2.60;;;23.50;76.30;;;;;;5053437;28;20021;-78
2023/07/05 03:45:53;;;;;;;5.20;2.83;;;23.50;76.50;;;;;;5053321;28;20017;-78
2023/07/05 03:48:19;;;;;;;6.45;2.92;;;23.60;76.90;;;;;;5053297;28;20391;-78
2023/07/05 03:50:45;;;;;;;4.57;2.67;;;23.50;76.80;;;;;;5051867;28;20071;-78
2023/07/05 03:53:11;;;;;;;3.90;2.75;;;23.50;76.70;;;;;;5052848;28;20033;-77
2023/07/05 03:55:37;;;;;;;6.07;3.50;;;23.50;77.00;;;;;;5053192;28;20061;-78
2023/07/05 03:58:02;;;;;;;4.63;3.10;;;23.60;77.30;;;;;;5052899;28;20151;-77
2023/07/05 04:00:28;;;;;;;8.48;3.17;;;23.60;77.50;;;;;;5051732;28;20032;-78
2023/07/05 04:02:54;;;;;;;5.45;3.30;;;23.60;77.70;;;;;;5052970;28;20025;-78
2023/07/05 04:05:20;;;;;;;4.95;2.90;;;23.60;77.90;;;;;;5052798;28;20024;-77
2023/07/05 04:07:46;;;;;;;5.35;3.30;;;23.60;78.00;;;;;;5052712;28;20490;-78
2023/07/05 04:10:12;;;;;;;3.70;2.90;;;23.60;78.20;;;;;;5052737;28;20021;-78
2023/07/05 04:12:38;;;;;;;6.18;3.03;;;23.60;78.80;;;;;;5052699;28;20501;-78
2023/07/05 04:15:04;;;;;;;5.40;3.03;;;23.60;78.20;;;;;;5052770;28;20106;-77
2023/07/05 04:17:31;;;;;;;5.22;3.28;;;23.60;78.00;;;;;;5052745;28;20427;-77
2023/07/05 04:19:56;;;;;;;5.80;3.50;;;23.70;77.90;;;;;;5052698;28;20026;-78
2023/07/05 04:22:22;;;;;;;5.65;3.33;;;23.60;77.60;;;;;;5052789;28;20163;-78
2023/07/05 04:24:48;;;;;;;9.75;3.42;;;23.70;77.70;;;;;;5052797;28;20484;-78
2023/07/05 04:27:15;;;;;;;8.82;3.50;;;23.70;77.70;;;;;;5052679;28;20024;-70
2023/07/05 04:29:41;;;;;;;6.47;3.35;;;23.70;77.80;;;;;;5052466;28;20021;-70
2023/07/05 04:32:07;;;;;;;6.72;3.50;;;23.70;77.70;;;;;;5052636;28;20432;-70
2023/07/05 04:34:33;;;;;;;5.75;2.75;;;23.70;77.60;;;;;;5052456;28;20021;-70
2023/07/05 04:36:59;;;;;;;4.70;3.38;;;23.70;77.70;;;;;;5052472;28;20025;-70
2023/07/05 04:39:24;;;;;;;5.60;3.28;;;23.80;77.80;;;;;;5052544;28;20108;-70
2023/07/05 04:41:50;;;;;;;4.95;3.22;;;23.80;77.90;;;;;;5052556;28;20027;-70
2023/07/05 04:44:16;;;;;;;4.10;3.10;;;23.80;78.00;;;;;;5052641;28;20025;-70
2023/07/05 04:46:42;;;;;;;6.82;3.40;;;23.80;77.70;;;;;;5052531;28;20021;-70
2023/07/05 04:49:07;;;;;;;6.18;3.15;;;23.80;77.40;;;;;;5050746;28;20032;-70
2023/07/05 04:51:33;;;;;;;7.93;3.03;;;23.70;77.00;;;;;;5054475;28;20021;-70
2023/07/05 04:54:00;;;;;;;4.95;3.40;;;23.70;77.00;;;;;;5056221;28;20025;-70
2023/07/05 04:56:26;;;;;;;6.70;2.70;;;23.70;77.30;;;;;;5056353;28;20017;-70
2023/07/05 04:58:52;;;;;;;6.97;2.80;;;23.70;77.40;;;;;;5056480;28;20087;-70
2023/07/05 05:01:20;;;;;;;4.30;3.10;;;23.60;77.40;;;;;;5056405;28;20052;-70
2023/07/05 05:03:45;;;;;;;7.03;3.13;;;23.60;77.50;;;;;;5056215;28;20025;-70
2023/07/05 05:06:11;;;;;;;7.38;3.00;;;23.60;77.40;;;;;;5056317;28;20071;-70
2023/07/05 05:08:37;;;;;;;7.00;2.80;;;23.60;77.40;;;;;;5056214;28;20033;-70
2023/07/05 05:11:04;;;;;;;5.40;2.85;;;23.60;77.60;;;;;;5056328;28;20020;-70
2023/07/05 05:13:32;;;;;;;5.68;2.90;;;23.60;77.90;;;;;;5055985;28;20041;-70
2023/07/05 05:15:58;;;;;;;4.82;2.58;;;23.60;78.10;;;;;;5055830;28;20052;-70
2023/07/05 05:18:27;;;;;;;6.70;2.88;;;23.60;78.10;;;;;;5056060;28;20036;-70
2023/07/05 05:20:53;;;;;;;5.90;3.20;;;23.60;78.20;;;;;;5054785;28;20025;-70
2023/07/05 05:23:19;;;;;;;5.97;3.15;;;23.60;78.20;;;;;;5055848;28;20423;-70
2023/07/05 05:25:46;;;;;;;5.43;3.03;;;23.70;78.40;;;;;;5055615;28;20025;-70
2023/07/05 05:28:13;;;;;;;4.30;3.00;;;23.70;78.60;;;;;;5055701;28;20021;-70
2023/07/05 05:30:40;;;;;;;4.15;2.97;;;23.70;79.00;;;;;;5055690;28;20032;-69
2023/07/05 05:33:06;;;;;;;5.57;2.85;;;23.70;79.00;;;;;;5055695;28;20479;-69
2023/07/05 05:35:34;;;;;;;5.28;3.47;;;23.80;78.80;;;;;;5055613;28;20021;-70
2023/07/05 05:38:00;;;;;;;6.13;3.40;;;23.80;78.60;;;;;;5055320;28;20483;-70
2023/07/05 05:40:26;;;;;;;6.72;3.63;;;23.90;78.90;;;;;;5055371;28;20096;-70
2023/07/05 05:42:52;;;;;;;6.50;3.53;;;23.90;78.70;;;;;;5058424;28;20029;-69
2023/07/05 05:45:18;;;;;;;7.18;3.80;;;23.90;78.50;;;;;;5095510;28;20119;-70
2023/07/05 05:47:43;;;;;;;5.75;3.50;;;24.00;78.70;;;;;;5095375;28;20457;-71
2023/07/05 05:50:09;;;;;;;5.93;3.20;;;24.00;78.70;;;;;;5095413;28;20024;-71
2023/07/05 05:52:35;;;;;;;8.52;3.72;;;24.10;78.60;;;;;;5095230;28;20032;-71
2023/07/05 05:55:03;;;;;;;6.25;3.60;;;24.10;78.30;;;;;;5095442;28;20031;-71
2023/07/05 05:57:29;;;;;;;5.85;3.55;;;24.10;78.30;;;;;;5094897;28;20228;-71
2023/07/05 05:59:54;;;;;;;8.98;3.63;;;24.20;78.20;;;;;;5095464;28;20132;-71
2023/07/05 06:02:20;;;;;;;12.20;3.40;;;24.20;78.10;;;;;;5094225;28;20125;-70
2023/07/05 06:04:46;;;;;;;4.43;3.40;;;24.20;78.40;;;;;;5094996;28;20024;-71
2023/07/05 06:07:12;;;;;;;8.65;3.22;;;24.30;78.70;;;;;;5095114;28;20031;-71
2023/07/05 06:09:39;;;;;;;5.78;3.67;;;24.30;78.50;;;;;;5094616;28;20031;-70
2023/07/05 06:12:05;;;;;;;10.85;4.50;;;24.40;78.40;;;;;;5094708;28;20359;-70
2023/07/05 06:14:31;;;;;;;5.93;3.65;;;24.40;78.30;;;;;;5095006;28;20024;-70
2023/07/05 06:16:57;;;;;;;8.35;3.33;;;24.40;78.30;;;;;;5094987;28;20052;-71
2023/07/05 06:19:22;;;;;;;19.77;6.65;;;24.50;78.50;;;;;;5095201;28;20023;-71
2023/07/05 06:21:48;;;;;;;17.30;4.68;;;24.50;78.50;;;;;;5095153;28;20028;-74
2023/07/05 06:24:14;;;;;;;11.05;3.85;;;24.40;78.60;;;;;;5095064;28;20024;-73
2023/07/05 06:26:40;;;;;;;59.85;6.70;;;24.50;78.80;;;;;;5094885;28;20032;-74
2023/07/05 06:29:07;;;;;;;34.17;5.78;;;24.50;78.90;;;;;;5094789;28;20040;-73
2023/07/05 06:31:33;;;;;;;23.38;5.43;;;24.50;78.90;;;;;;5094562;28;20073;-74
2023/07/05 06:34:02;;;;;;;12.20;5.82;;;24.50;78.80;;;;;;5094887;28;20092;-75
2023/07/05 06:36:27;;;;;;;26.08;7.95;;;24.60;78.60;;;;;;5094720;28;20028;-75
2023/07/05 06:38:53;;;;;;;14.52;5.53;;;24.60;78.40;;;;;;5094728;28;20382;-75
2023/07/05 06:41:19;;;;;;;11.35;5.53;;;24.60;78.00;;;;;;5094221;28;20044;-75
2023/07/05 06:43:45;;;;;;;10.65;5.80;;;24.70;77.90;;;;;;5094228;28;20065;-76
2023/07/05 06:46:11;;;;;;;6.35;3.05;;;24.70;77.80;;;;;;5094157;28;20024;-75
2023/07/05 06:48:37;;;;;;;7.78;3.50;;;24.70;77.50;;;;;;5094114;28;20485;-75
2023/07/05 06:51:02;;;;;;;8.00;2.72;;;24.70;77.50;;;;;;5093776;28;20036;-75
2023/07/05 06:53:28;;;;;;;8.70;1.88;;;24.60;77.40;;;;;;5094095;28;20035;-76
2023/07/05 06:55:54;;;;;;;17.23;1.77;;;24.70;76.40;;;;;;5094104;28;20094;-75
2023/07/05 06:58:20;;;;;;;308.73;24.92;;;24.60;76.20;;;;;;5093979;28;20028;-74
2023/07/05 07:00:47;;;;;;;21.77;2.45;;;24.50;76.70;;;;;;5094154;28;20103;-75
2023/07/05 07:03:13;;;;;;;3.75;1.50;;;24.50;77.00;;;;;;5094057;28;20524;-75
2023/07/05 07:05:39;;;;;;;4.00;1.27;;;24.50;76.50;;;;;;5094040;28;20047;-74
2023/07/05 07:08:05;;;;;;;3.17;1.45;;;24.50;76.20;;;;;;5092853;28;20032;-73
2023/07/05 07:10:34;;;;;;;13.52;2.53;;;24.50;75.70;;;;;;5093245;28;20069;-73
2023/07/05 07:13:00;;;;;;;10.38;1.42;;;24.50;75.10;;;;;;5071264;28;20131;-72
2023/07/05 07:15:25;;;;;;;14.27;2.47;;;24.50;75.10;;;;;;5051685;28;20570;-73
2023/07/05 07:17:51;;;;;;;9.75;1.48;;;24.50;75.00;;;;;;5053151;28;20064;-73
2023/07/05 07:20:19;;;;;;;11.07;1.98;;;24.50;74.70;;;;;;5053314;28;20029;-80
2023/07/05 07:22:45;;;;;;;8.45;1.50;;;24.50;74.40;;;;;;5053348;28;20025;-74
2023/07/05 07:25:10;;;;;;;5.45;1.20;;;24.50;74.60;;;;;;5050494;28;20017;-74
2023/07/05 07:27:36;;;;;;;8.25;1.50;;;24.50;75.10;;;;;;5077053;28;20099;-74
2023/07/05 07:30:02;;;;;;;3.40;1.50;;;24.50;74.80;;;;;;5093196;28;20031;-73
2023/07/05 07:32:28;;;;;;;4.07;1.10;;;24.50;73.80;;;;;;5093112;28;20038;-75
2023/07/05 07:34:55;;;;;;;13.82;2.03;;;24.50;73.50;;;;;;5064085;28;20037;-73
2023/07/05 07:37:21;;;;;;;2.95;1.00;;;24.50;73.40;;;;;;5072010;28;20012;-72
2023/07/05 07:39:47;;;;;;;2.92;0.93;;;24.50;73.60;;;;;;5072460;28;20051;-73
2023/07/05 07:42:13;;;;;;;2.28;1.13;;;24.50;73.70;;;;;;5072181;28;20055;-72
2023/07/05 07:44:39;;;;;;;7.70;1.55;;;24.50;73.60;;;;;;5072856;28;20121;-74
2023/07/05 07:47:06;;;;;;;3.60;1.10;;;24.60;73.50;;;;;;5072637;28;20017;-78
2023/07/05 07:49:32;;;;;;;3.22;1.10;;;24.60;73.10;;;;;;5072624;28;20016;-74
2023/07/05 07:51:58;;;;;;;6.50;1.30;;;24.60;73.20;;;;;;5054547;28;20481;-74
2023/07/05 07:54:29;;;;;;;2.85;1.45;;;24.60;73.60;;;;;;5072423;28;20107;-74
2023/07/05 07:56:55;;;;;;;3.95;1.25;;;24.70;74.10;;;;;;5054839;28;20028;-75
2023/07/05 07:59:22;;;;;;;2.30;1.20;;;24.70;73.70;;;;;;5072732;28;20025;-74
2023/07/05 08:01:48;;;;;;;3.45;1.52;;;24.80;73.50;;;;;;5073006;28;20091;-74
2023/07/05 08:04:15;;;;;;;436.02;37.30;;;24.80;73.00;;;;;;5072983;28;20104;-74
2023/07/05 08:06:48;;;;;;;21.80;2.72;;;24.90;72.60;;;;;;5072951;28;20030;-73
2023/07/05 08:09:17;;;;;;;603.38;49.00;;;24.90;72.60;;;;;;5072486;28;20424;-74
2023/07/05 08:11:43;;;;;;;458.63;34.60;;;24.90;72.30;;;;;;5072332;28;20035;-74
2023/07/05 08:14:09;;;;;;;20.73;2.97;;;24.90;71.90;;;;;;5054423;28;20020;-74
2023/07/05 08:16:36;;;;;;;12.20;2.45;;;25.00;72.30;;;;;;5072462;28;20053;-73
2023/07/05 08:19:02;;;;;;;4.72;1.50;;;25.00;72.60;;;;;;5072383;28;20055;-73
2023/07/05 08:21:28;;;;;;;5.22;1.45;;;25.00;72.80;;;;;;5072367;28;20028;-74
2023/07/05 08:23:54;;;;;;;2.10;1.10;;;25.10;73.10;;;;;;5072439;28;20017;-74
2023/07/05 08:26:21;;;;;;;3.47;1.45;;;25.20;73.50;;;;;;5072058;28;20025;-74
2023/07/05 08:28:47;;;;;;;2.80;1.27;;;25.20;73.50;;;;;;5072673;28;20021;-74
2023/07/05 08:31:13;;;;;;;3.67;1.17;;;25.20;73.70;;;;;;5072686;28;20045;-74
2023/07/05 08:33:41;;;;;;;3.58;1.52;;;25.20;73.20;;;;;;5054414;28;20028;-74
2023/07/05 08:36:15;;;;;;;6.13;1.75;;;25.30;73.30;;;;;;5072986;28;20048;-73
2023/07/05 08:38:54;;;;;;;2.83;1.40;;;25.30;73.10;;;;;;5072720;28;20052;-73
2023/07/05 08:41:37;;;;;;;4.22;1.70;;;25.40;73.00;;;;;;5072600;28;20382;-73
2023/07/05 08:44:13;;;;;;;3.05;1.60;;;25.40;72.90;;;;;;5072571;28;20056;-75
2023/07/05 08:46:41;;;;;;;4.28;1.58;;;25.40;73.20;;;;;;5072047;28;20471;-74
2023/07/05 08:49:19;;;;;;;2.08;1.35;;;25.50;73.00;;;;;;5072437;28;20029;-73
2023/07/05 08:51:45;;;;;;;4.77;1.87;;;25.70;73.20;;;;;;5071286;28;20029;-73
2023/07/05 08:54:13;;;;;;;3.95;1.80;;;25.60;72.80;;;;;;5072172;28;20032;-73
2023/07/05 08:56:49;;;;;;;3.65;1.77;;;25.70;72.60;;;;;;5072375;28;20020;-73
2023/07/05 08:59:32;;;;;;;5.45;2.08;;;25.70;72.10;;;;;;5071379;28;20052;-73
2023/07/05 09:02:00;;;;;;;4.93;2.03;;;25.60;72.10;;;;;;5072530;28;20478;-73
2023/07/05 09:04:29;;;;;;;9.30;2.60;;;25.60;72.10;;;;;;5071975;28;20037;-74
2023/07/05 09:07:18;;;;;;;3.72;1.80;;;25.60;72.20;;;;;;5071980;28;20028;-73
2023/07/05 09:10:23;;;;;;;5.10;2.40;;;25.50;72.20;;;;;;5071843;28;20394;-73
2023/07/05 09:12:56;;;;;;;4.57;2.30;;;25.50;72.00;;;;;;5016998;28;20044;-74
2023/07/05 09:15:29;;;;;;;4.25;2.33;;;25.50;72.80;;;;;;5082183;22;20105;-73
2023/07/05 09:17:58;;;;;;;5.78;2.60;;;25.40;73.80;;;;;;5091959;28;20396;-73
2023/07/05 09:20:30;;;;;;;5.28;3.63;;;25.40;74.90;;;;;;5092058;28;20077;-73
2023/07/05 09:22:58;;;;;;;5.72;2.60;;;25.40;75.50;;;;;;5092481;28;20035;-73
2023/07/05 09:25:27;;;;;;;8.27;2.60;;;25.40;75.90;;;;;;5092328;28;20389;-74
2023/07/05 09:28:02;;;;;;;6.50;2.45;;;25.40;76.60;;;;;;5092292;28;20020;-73
2023/07/05 09:30:29;;;;;;;4.28;2.38;;;25.40;77.40;;;;;;5092239;28;20039;-73
2023/07/05 09:33:27;;;;;;;6.35;2.30;;;25.50;78.70;;;;;;5105789;28;20027;-73
2023/07/05 09:35:54;;;;;;;4.25;1.85;;;25.60;78.80;;;;;;5112465;28;20480;-73
2023/07/05 09:38:33;;;;;;;5.45;2.63;;;25.80;78.60;;;;;;5114367;28;20027;-73
2023/07/05 09:41:04;;;;;;;7.82;2.50;;;25.80;78.40;;;;;;5115993;28;20031;-73
2023/07/05 09:43:35;;;;;;;5.32;2.25;;;25.90;78.70;;;;;;5116093;28;20024;-73
2023/07/05 09:46:03;;;;;;;3.65;2.38;;;26.00;78.00;;;;;;5116185;28;20024;-74
2023/07/05 09:48:30;;;;;;;3.42;2.42;;;26.10;77.60;;;;;;5115688;28;20529;-73
2023/07/05 09:51:03;;;;;;;4.72;2.50;;;26.20;76.40;;;;;;5115682;28;20020;-74
2023/07/05 09:53:44;;;;;;;5.45;2.50;;;26.30;76.00;;;;;;5115749;28;20034;-74
2023/07/05 09:56:13;;;;;;;3.23;2.40;;;26.40;75.40;;;;;;5115878;28;20020;-73
2023/07/05 09:58:40;;;;;;;5.15;2.60;;;26.50;74.30;;;;;;5116206;28;20023;-74
2023/07/05 10:01:23;;;;;;;6.97;3.33;;;26.60;73.70;;;;;;5115850;28;20028;-74
2023/07/05 10:03:57;;;;;;;6.72;2.80;;;26.60;73.30;;;;;;5115457;28;20484;-74
2023/07/05 10:06:28;;;;;;;5.85;2.70;;;26.60;73.10;;;;;;5115554;28;20072;-74
2023/07/05 10:08:55;;;;;;;3.67;2.50;;;26.60;73.00;;;;;;5115544;28;20490;-74
2023/07/05 10:11:22;;;;;;;6.40;2.60;;;26.60;73.20;;;;;;5115554;28;20047;-74
2023/07/05 10:14:06;;;;;;;4.78;2.60;;;26.60;73.70;;;;;;5115275;28;20039;-74
2023/07/05 10:16:49;;;;;;;8.07;3.47;;;26.50;72.90;;;;;;5115184;28;20075;-75
2023/07/05 10:19:30;;;;;;;5.35;2.50;;;26.50;72.80;;;;;;5085951;28;20115;-75
2023/07/05 10:22:04;;;;;;;5.38;2.10;;;26.50;73.10;;;;;;5094846;28;20043;-75
2023/07/05 10:24:36;;;;;;;4.25;2.38;;;26.50;73.70;;;;;;5094552;28;20051;-75
2023/07/05 10:27:21;;;;;;;4.95;2.45;;;26.60;73.90;;;;;;5094345;28;20046;-75
2023/07/05 10:30:00;;;;;;;4.68;2.20;;;26.60;73.50;;;;;;5094564;28;20469;-75
2023/07/05 10:32:26;;;;;;;5.07;2.20;;;26.70;73.40;;;;;;5094465;28;20077;-75
2023/07/05 10:34:55;;;;;;;3.25;2.15;;;26.80;73.40;;;;;;5094309;28;20074;-75
2023/07/05 10:37:37;;;;;;;4.63;2.20;;;26.90;73.30;;;;;;5094270;28;20136;-75
2023/07/05 10:40:09;;;;;;;;;;;27.00;73.70;;;;;;5094897;28;20024;-75
2023/07/05 10:42:38;;;;;;;5.72;2.00;;;27.10;73.10;;;;;;5094167;28;19908;-76
2023/07/05 10:45:04;;;;;;;9.10;2.78;;;27.20;72.00;;;;;;5094165;28;20024;-76
2023/07/05 10:47:32;;;;;;;3.50;2.38;;;27.30;72.00;;;;;;5075733;28;20119;-75
2023/07/05 10:50:04;;;;;;;5.88;2.20;;;27.30;71.20;;;;;;5093727;28;20031;-75
2023/07/05 10:52:36;;;;;;;5.97;2.00;;;27.40;70.90;;;;;;5093906;28;20513;-75
2023/07/05 10:55:02;;;;;;;2.72;1.98;;;27.50;69.30;;;;;;5093972;28;20027;-75
2023/07/05 10:57:41;;;;;;;5.63;2.22;;;27.60;68.50;;;;;;5094041;28;20393;-75
2023/07/05 11:00:22;;;;;;;4.47;2.10;;;27.60;68.70;;;;;;5093805;28;20052;-76
2023/07/05 11:02:55;;;;;;;5.65;1.95;;;27.70;67.20;;;;;;5093822;28;20020;-77
2023/07/05 11:05:54;;;;;;;4.00;1.90;;;27.70;65.80;;;;;;5094168;28;20413;-77
2023/07/05 11:08:26;;;;;;;2.50;2.00;;;27.80;65.70;;;;;;5078230;28;20024;-75
2023/07/05 11:10:55;;;;;;;7.20;2.20;;;27.80;63.50;;;;;;5100555;28;20031;-75
2023/07/05 11:13:21;;;;;;;2.97;1.95;;;27.90;62.50;;;;;;5113745;28;20133;-75
2023/07/05 11:15:48;;;;;;;3.05;1.85;;;27.90;63.10;;;;;;5095864;28;20054;-76
2023/07/05 11:18:19;;;;;;;3.42;1.80;;;28.00;64.20;;;;;;5114352;28;20034;-75
2023/07/05 11:20:48;;;;;;;2.63;1.83;;;28.00;65.00;;;;;;5114066;28;20016;-78
2023/07/05 11:23:43;;;;;;;3.00;1.83;;;28.10;64.50;;;;;;5112925;28;20532;-76
2023/07/05 11:26:29;;;;;;;6.95;2.13;;;28.10;65.50;;;;;;5095836;28;20032;-76
2023/07/05 11:28:55;;;;;;;4.60;1.80;;;28.20;65.40;;;;;;5113109;28;20031;-76
2023/07/05 11:31:26;;;;;;;3.13;2.00;;;28.30;64.90;;;;;;5113094;28;20096;-78
2023/07/05 11:34:20;;;;;;;3.50;2.03;;;28.30;64.40;;;;;;5112997;28;20070;-79
2023/07/05 11:36:47;;;;;;;3.28;1.65;;;28.30;64.20;;;;;;5113085;28;20495;-76
2023/07/05 11:39:39;;;;;;;3.38;1.60;;;28.30;62.10;;;;;;5113896;28;20499;-81
2023/07/05 11:42:17;;;;;;;2.55;1.70;;;28.40;60.30;;;;;;5109025;28;20132;-79
2023/07/05 11:44:50;;;;;;;3.78;1.98;;;28.40;59.60;;;;;;5113817;28;20408;-76
2023/07/05 11:47:22;;;;;;;2.35;1.30;;;28.30;59.60;;;;;;5113717;28;20100;-75
2023/07/05 11:50:00;;;;;;;;;;;28.30;60.10;;;;;;5114079;28;20038;-75
2023/07/05 11:52:31;;;;;;;3.20;1.30;;;28.30;59.20;;;;;;5113593;28;20001;-78
2023/07/05 11:55:05;;;;;;;5.57;1.67;;;28.40;58.60;;;;;;5113697;28;20026;-76
2023/07/05 11:57:47;;;;;;;1.85;1.10;;;28.50;56.60;;;;;;5113568;28;20535;-78
2023/07/05 12:00:18;;;;;;;5.22;1.30;;;28.50;54.40;;;;;;5112624;28;20016;-79
2023/07/05 12:03:15;;;;;;;3.38;1.55;;;28.50;54.90;;;;;;5113392;28;20112;-76
2023/07/05 12:05:43;;;;;;;4.25;1.33;;;28.60;55.00;;;;;;5113399;28;20098;-77
2023/07/05 12:08:40;;;;;;;4.40;1.70;;;28.60;53.90;;;;;;5113435;28;20019;-79
2023/07/05 12:11:07;;;;;;;2.03;1.30;;;28.70;54.10;;;;;;5093773;28;20039;-77
2023/07/05 12:13:35;;;;;;;4.07;1.30;;;28.70;53.50;;;;;;5113556;28;20031;-77
2023/07/05 12:16:03;;;;;;;2.25;1.50;;;28.70;53.40;;;;;;5113211;28;20052;-77
2023/07/05 12:18:30;;;;;;;2.97;1.25;;;28.70;53.00;;;;;;5113590;28;20110;-77
2023/07/05 12:20:58;;;;;;;1.45;1.08;;;28.80;53.00;;;;;;5113214;28;20487;-75
2023/07/05 12:23:25;;;;;;;2.97;1.35;;;28.80;52.90;;;;;;5113064;28;20024;-77
2023/07/05 12:25:55;;;;;;;3.95;1.23;;;28.90;52.20;;;;;;5113445;28;20103;-77
2023/07/05 12:28:29;;;;;;;2.45;1.30;;;28.90;52.60;;;;;;5113603;28;20048;-77
2023/07/05 12:30:56;;;;;;;2.78;1.30;;;28.90;52.40;;;;;;5113312;28;20533;-77
2023/07/05 12:33:24;;;;;;;1.52;1.05;;;28.90;51.50;;;;;;5112931;28;20029;-75
2023/07/05 12:36:09;;;;;;;3.50;1.13;;;28.80;51.30;;;;;;5113387;28;20027;-78
2023/07/05 12:38:37;;;;;;;3.13;1.40;;;28.80;51.20;;;;;;5113256;28;20020;-76
2023/07/05 12:41:04;;;;;;;1.98;1.20;;;28.80;52.20;;;;;;5113344;28;20026;-80
2023/07/05 12:43:32;;;;;;;2.63;1.42;;;28.80;53.30;;;;;;5113392;28;20020;-80
2023/07/05 12:46:12;;;;;;;2.35;1.15;;;28.90;53.30;;;;;;5112467;28;20472;-78
2023/07/05 12:48:38;;;;;;;6.00;1.48;;;28.90;52.90;;;;;;5113630;28;20376;-77
2023/07/05 12:51:23;;;;;;;1.63;1.33;;;28.90;53.40;;;;;;5113310;28;20024;-76
2023/07/05 12:53:51;;;;;;;2.25;1.17;;;29.00;53.40;;;;;;5112705;28;20114;-75
2023/07/05 12:56:20;;;;;;;3.65;1.45;;;29.00;52.40;;;;;;5113044;28;20534;-75
2023/07/05 12:58:53;;;;;;;7.05;1.63;;;29.00;52.10;;;;;;5113088;28;20024;-79